createdAt,value
2018-11-11T00:01:56.904Z,98.00
2018-11-11T00:04:25.272Z,98.30
2018-11-11T00:06:54.138Z,98.10
2018-11-11T00:09:22.549Z,98.40
2018-11-11T00:11:50.964Z,98.30
2018-11-11T00:14:19.339Z,98.20
2018-11-11T00:16:47.824Z,98.30
2018-11-11T00:19:16.170Z,98.20
2018-11-11T00:21:44.627Z,97.90
2018-11-11T00:24:13.178Z,98.10
2018-11-11T00:26:41.620Z,98.00
2018-11-11T00:29:10.008Z,98.20
2018-11-11T00:31:38.385Z,97.90
2018-11-11T00:34:06.774Z,97.70
2018-11-11T00:36:35.171Z,97.90
2018-11-11T00:39:04.649Z,97.80
2018-11-11T00:41:33.058Z,97.60
2018-11-11T00:44:01.454Z,97.60
2018-11-11T00:46:29.839Z,97.60
2018-11-11T00:48:59.156Z,97.80
2018-11-11T00:51:27.518Z,97.50
2018-11-11T00:53:55.877Z,97.20
2018-11-11T00:56:24.247Z,97.50
2018-11-11T00:58:52.652Z,97.30
2018-11-11T01:01:21.037Z,97.60
2018-11-11T01:03:49.403Z,96.80
2018-11-11T01:06:17.813Z,96.70
2018-11-11T01:13:22.223Z,96.20
2018-11-11T01:15:50.627Z,96.00
2018-11-11T01:18:19.000Z,95.80
2018-11-11T01:20:48.415Z,96.00
2018-11-11T01:23:16.785Z,95.80
2018-11-11T01:25:45.153Z,95.80
2018-11-11T01:28:13.703Z,95.70
2018-11-11T01:30:42.100Z,95.60
2018-11-11T01:33:10.472Z,95.50
2018-11-11T01:35:38.888Z,95.80
2018-11-11T01:38:07.344Z,95.40
2018-11-11T01:40:35.736Z,95.40
2018-11-11T01:43:04.759Z,95.40
2018-11-11T01:45:33.258Z,95.40
2018-11-11T01:48:01.854Z,95.40
2018-11-11T01:50:30.348Z,95.40
2018-11-11T01:52:58.742Z,95.50
2018-11-11T01:55:27.110Z,95.50
2018-11-11T01:57:55.568Z,95.40
2018-11-11T02:00:24.182Z,95.40
2018-11-11T02:02:52.547Z,95.80
2018-11-11T02:05:21.007Z,95.90
2018-11-11T02:07:49.528Z,96.00
2018-11-11T02:10:17.913Z,96.00
2018-11-11T02:12:46.923Z,96.00
2018-11-11T02:15:16.225Z,96.10
2018-11-11T02:17:44.589Z,95.90
2018-11-11T02:20:20.161Z,95.90
2018-11-11T02:22:49.519Z,96.00
2018-11-11T02:25:17.880Z,95.90
2018-11-11T02:27:46.621Z,95.90
2018-11-11T02:30:16.226Z,95.90
2018-11-11T02:32:44.941Z,95.90
2018-11-11T02:35:13.579Z,95.90
2018-11-11T02:37:42.279Z,95.90
2018-11-11T02:40:12.487Z,95.80
2018-11-11T02:42:40.917Z,95.80
2018-11-11T02:45:10.805Z,95.70
2018-11-11T02:47:39.254Z,95.70
2018-11-11T02:50:09.702Z,95.60
2018-11-11T02:52:38.147Z,95.60
2018-11-11T02:55:07.093Z,95.60
2018-11-11T02:57:35.752Z,95.60
2018-11-11T03:00:04.679Z,95.60
2018-11-11T03:02:33.066Z,95.60
2018-11-11T03:05:01.483Z,95.50
2018-11-11T03:07:29.864Z,95.50
2018-11-11T03:09:58.282Z,95.40
2018-11-11T03:12:26.664Z,95.40
2018-11-11T03:14:55.104Z,95.70
2018-11-11T03:17:23.512Z,95.30
2018-11-11T03:19:51.916Z,95.30
2018-11-11T03:22:20.288Z,95.30
2018-11-11T03:24:48.644Z,95.30
2018-11-11T03:27:17.007Z,95.20
2018-11-11T03:29:45.415Z,95.20
2018-11-11T03:32:13.807Z,95.30
2018-11-11T03:34:42.223Z,95.20
2018-11-11T03:37:10.620Z,95.30
2018-11-11T03:39:39.015Z,95.20
2018-11-11T03:42:07.398Z,95.20
2018-11-11T03:44:35.762Z,95.30
2018-11-11T03:47:04.164Z,95.30
2018-11-11T03:49:32.556Z,95.30
2018-11-11T03:52:00.937Z,95.30
2018-11-11T03:54:29.311Z,95.40
2018-11-11T03:56:57.745Z,95.40
2018-11-11T03:59:26.137Z,95.40
2018-11-11T04:01:54.576Z,95.40
2018-11-11T04:04:23.109Z,95.50
2018-11-11T04:06:51.479Z,96.10
2018-11-11T04:09:19.854Z,95.80
2018-11-11T04:11:48.224Z,96.00
2018-11-11T04:14:18.303Z,95.90
2018-11-11T04:16:46.688Z,96.00
2018-11-11T04:19:15.084Z,96.10
2018-11-11T04:21:43.475Z,96.20
2018-11-11T04:24:11.895Z,96.20
2018-11-11T04:26:40.324Z,96.30
2018-11-11T04:29:08.809Z,96.60
2018-11-11T04:31:38.254Z,96.90
2018-11-11T04:34:06.651Z,96.70
2018-11-11T04:36:35.054Z,96.70
2018-11-11T04:39:04.085Z,96.90
2018-11-11T04:41:32.768Z,97.00
2018-11-11T04:44:01.642Z,97.20
2018-11-11T04:46:30.109Z,97.10
2018-11-11T04:48:58.657Z,97.10
2018-11-11T04:51:27.139Z,97.20
2018-11-11T04:53:55.951Z,97.20
2018-11-11T04:56:24.333Z,97.20
2018-11-11T04:58:52.740Z,97.20
2018-11-11T05:01:21.210Z,97.20
2018-11-11T05:03:49.805Z,97.20
2018-11-11T05:06:18.173Z,97.20
2018-11-11T05:08:46.564Z,97.20
2018-11-11T05:11:14.969Z,97.10
2018-11-11T05:13:43.645Z,97.20
2018-11-11T05:16:12.101Z,97.20
2018-11-11T05:18:40.607Z,97.30
2018-11-11T05:21:09.033Z,97.30
2018-11-11T05:23:37.421Z,97.40
2018-11-11T05:26:05.909Z,97.70
2018-11-11T05:28:34.349Z,97.70
2018-11-11T05:31:02.758Z,97.70
2018-11-11T05:33:31.178Z,97.90
2018-11-11T05:35:59.726Z,97.90
2018-11-11T05:38:28.134Z,98.30
2018-11-11T05:40:56.516Z,98.10
2018-11-11T05:43:24.903Z,98.10
2018-11-11T05:45:53.273Z,98.10
2018-11-11T05:48:21.684Z,98.20
2018-11-11T05:50:50.069Z,98.20
2018-11-11T05:53:18.447Z,98.10
2018-11-11T05:55:46.884Z,98.10
2018-11-11T05:58:15.292Z,98.10
2018-11-11T06:00:43.766Z,98.10
2018-11-11T06:03:12.244Z,98.10
2018-11-11T06:05:40.681Z,97.90
2018-11-11T06:08:09.148Z,98.00
2018-11-11T06:10:37.572Z,97.80
2018-11-11T06:13:05.993Z,97.70
2018-11-11T06:15:34.465Z,97.70
2018-11-11T06:18:02.851Z,97.60
2018-11-11T06:20:31.255Z,97.60
2018-11-11T06:22:59.673Z,97.80
2018-11-11T06:25:28.089Z,97.50
2018-11-11T06:27:56.606Z,97.40
2018-11-11T06:30:25.058Z,97.20
2018-11-11T06:32:53.425Z,97.10
2018-11-11T06:35:21.916Z,97.10
2018-11-11T06:37:50.305Z,97.00
2018-11-11T06:40:18.698Z,97.00
2018-11-11T06:42:47.114Z,97.00
2018-11-11T06:45:15.867Z,97.00
2018-11-11T06:47:44.985Z,97.00
2018-11-11T06:50:14.475Z,97.00
2018-11-11T06:52:43.504Z,97.00
2018-11-11T06:55:12.288Z,96.80
2018-11-11T06:57:40.930Z,96.90
2018-11-11T07:00:11.506Z,96.70
2018-11-11T07:02:44.484Z,96.80
2018-11-11T07:05:13.903Z,96.70
2018-11-11T07:07:42.394Z,96.80
2018-11-11T07:10:10.921Z,96.80
2018-11-11T07:12:39.280Z,96.90
2018-11-11T07:15:07.666Z,96.80
2018-11-11T07:17:36.096Z,96.80
2018-11-11T07:20:04.894Z,96.90
2018-11-11T07:22:33.312Z,97.00
2018-11-11T07:25:01.786Z,97.00
2018-11-11T07:27:30.408Z,97.00
2018-11-11T07:29:59.155Z,97.00
2018-11-11T07:32:28.458Z,96.60
2018-11-11T07:34:56.832Z,97.00
2018-11-11T07:37:25.209Z,96.80
2018-11-11T07:39:53.623Z,96.80
2018-11-11T07:42:22.064Z,96.80
2018-11-11T07:44:50.796Z,96.70
2018-11-11T07:47:19.251Z,96.80
2018-11-11T07:49:47.670Z,96.70
2018-11-11T07:52:16.067Z,96.70
2018-11-11T07:54:44.536Z,96.70
2018-11-11T07:57:13.204Z,96.70
2018-11-11T07:59:41.571Z,96.50
2018-11-11T08:02:10.297Z,96.50
2018-11-11T08:04:38.851Z,96.50
2018-11-11T08:07:07.241Z,96.30
2018-11-11T08:09:35.805Z,96.20
2018-11-11T08:12:05.544Z,96.20
2018-11-11T08:14:33.984Z,96.00
2018-11-11T08:17:02.377Z,95.80
2018-11-11T08:19:30.982Z,95.30
2018-11-11T08:21:59.435Z,95.00
2018-11-11T08:24:27.968Z,95.00
2018-11-11T08:26:56.406Z,94.90
2018-11-11T08:29:24.806Z,95.00
2018-11-11T08:31:53.209Z,94.80
2018-11-11T08:34:21.658Z,94.70
2018-11-11T08:36:50.030Z,94.60
2018-11-11T08:39:18.930Z,94.60
2018-11-11T08:41:47.527Z,94.50
2018-11-11T08:44:16.049Z,94.50
2018-11-11T08:48:14.066Z,94.30
2018-11-11T08:50:42.777Z,94.30
2018-11-11T08:53:11.943Z,94.00
2018-11-11T08:55:40.405Z,94.10
2018-11-11T08:58:09.372Z,93.50
2018-11-11T09:00:37.921Z,93.30
2018-11-11T09:03:06.837Z,93.00
2018-11-11T09:05:35.333Z,92.90
2018-11-11T09:08:03.725Z,92.70
2018-11-11T09:10:32.127Z,93.00
2018-11-11T09:13:00.493Z,92.90
2018-11-11T09:15:28.872Z,92.70
2018-11-11T09:17:57.271Z,92.70
2018-11-11T09:20:25.637Z,92.50
2018-11-11T09:22:54.035Z,92.60
2018-11-11T09:25:22.521Z,92.50
2018-11-11T09:27:51.120Z,92.20
2018-11-11T09:30:19.604Z,92.30
2018-11-11T09:32:48.762Z,92.40
2018-11-11T09:35:17.202Z,92.20
2018-11-11T09:37:45.965Z,92.10
2018-11-11T09:40:14.356Z,92.20
2018-11-11T09:42:43.165Z,92.10
2018-11-11T09:45:13.442Z,92.00
2018-11-11T09:47:42.068Z,91.90
2018-11-11T09:50:12.116Z,92.00
2018-11-11T09:52:40.661Z,92.10
2018-11-11T09:55:10.436Z,92.10
2018-11-11T09:57:39.285Z,92.20
2018-11-11T10:00:14.886Z,92.10
2018-11-11T10:02:45.127Z,92.10
2018-11-11T10:05:19.973Z,92.00
2018-11-11T10:07:54.359Z,91.70
2018-11-11T10:10:29.203Z,91.70
2018-11-11T10:13:07.663Z,91.70
2018-11-11T10:15:55.936Z,91.60
2018-11-11T10:18:43.413Z,91.40
2018-11-11T10:21:20.382Z,91.30
2018-11-11T10:23:59.717Z,91.10
2018-11-11T10:26:33.499Z,91.20
2018-11-11T10:29:09.139Z,91.00
2018-11-11T10:31:41.715Z,90.90
2018-11-11T10:34:15.647Z,91.40
2018-11-11T10:36:47.428Z,91.00
2018-11-11T10:39:20.258Z,90.70
2018-11-11T10:41:55.338Z,90.70
2018-11-11T10:45:00.060Z,90.70
2018-11-11T10:47:33.971Z,90.80
2018-11-11T10:50:04.946Z,90.80
2018-11-11T10:52:33.350Z,90.70
2018-11-11T10:55:01.765Z,90.50
2018-11-11T10:57:30.182Z,90.00
2018-11-11T10:59:58.595Z,90.60
2018-11-11T11:02:27.544Z,90.20
2018-11-11T11:05:01.254Z,90.60
2018-11-11T11:07:29.796Z,89.80
2018-11-11T11:09:58.200Z,90.10
2018-11-11T11:12:27.199Z,90.30
2018-11-11T11:14:55.602Z,90.10
2018-11-11T11:17:24.324Z,90.30
2018-11-11T11:19:52.708Z,90.50
2018-11-11T11:22:21.132Z,90.10
2018-11-11T11:24:50.214Z,90.50
2018-11-11T11:27:18.681Z,90.30
2018-11-11T11:29:47.285Z,90.20
2018-11-11T11:32:15.722Z,90.40
2018-11-11T11:34:44.259Z,90.00
2018-11-11T11:37:12.633Z,90.30
2018-11-11T11:39:41.005Z,90.20
2018-11-11T11:42:09.407Z,90.30
2018-11-11T11:44:37.887Z,90.40
2018-11-11T11:47:06.381Z,90.30
2018-11-11T11:49:34.765Z,90.40
2018-11-11T11:52:03.177Z,90.30
2018-11-11T11:54:31.569Z,90.50
2018-11-11T11:56:59.982Z,90.30
2018-11-11T11:59:28.510Z,90.30
2018-11-11T12:01:57.089Z,90.00
2018-11-11T12:04:25.737Z,90.00
2018-11-11T12:06:54.124Z,90.20
2018-11-11T12:09:22.508Z,90.10
2018-11-11T12:11:50.903Z,90.00
2018-11-11T12:14:19.314Z,89.70
2018-11-11T12:16:47.827Z,90.00
2018-11-11T12:19:16.336Z,90.00
2018-11-11T12:21:44.793Z,90.00
2018-11-11T12:24:13.194Z,89.30
2018-11-11T12:26:41.593Z,89.10
2018-11-11T12:29:10.170Z,89.50
2018-11-11T12:31:38.630Z,88.90
2018-11-11T12:34:07.682Z,88.50
2018-11-11T12:36:36.151Z,88.90
2018-11-11T12:39:07.710Z,89.30
2018-11-11T12:41:36.296Z,89.50
2018-11-11T12:44:04.886Z,89.60
2018-11-11T12:46:33.511Z,89.60
2018-11-11T12:49:02.111Z,89.60
2018-11-11T12:51:30.789Z,89.60
2018-11-11T12:53:59.364Z,89.20
2018-11-11T12:56:27.782Z,89.30
2018-11-11T12:58:57.378Z,89.20
2018-11-11T13:01:26.077Z,89.50
2018-11-11T13:03:54.531Z,90.30
2018-11-11T13:06:22.937Z,89.60
2018-11-11T13:08:51.319Z,90.00
2018-11-11T13:11:20.739Z,89.70
2018-11-11T13:13:49.362Z,89.50
2018-11-11T13:16:17.948Z,89.50
2018-11-11T13:18:46.393Z,89.20
2018-11-11T13:21:14.786Z,89.70
2018-11-11T13:23:43.209Z,89.90
2018-11-11T13:26:11.600Z,89.90
2018-11-11T13:28:40.066Z,89.50
2018-11-11T13:31:08.695Z,89.70
2018-11-11T13:33:37.321Z,89.60
2018-11-11T13:36:05.712Z,90.00
2018-11-11T13:38:35.263Z,89.00
2018-11-11T13:41:04.141Z,88.70
2018-11-11T13:43:32.621Z,88.90
2018-11-11T13:46:01.032Z,89.10
2018-11-11T13:48:29.484Z,88.40
2018-11-11T13:50:57.864Z,89.00
2018-11-11T13:53:26.305Z,89.10
2018-11-11T13:55:54.900Z,89.40
2018-11-11T13:58:23.276Z,89.00
2018-11-11T14:00:51.674Z,88.50
2018-11-11T14:03:20.093Z,88.70
2018-11-11T14:05:48.535Z,87.70
2018-11-11T14:08:16.968Z,88.60
2018-11-11T14:10:45.812Z,88.60
2018-11-11T14:13:14.342Z,88.50
2018-11-11T14:15:42.759Z,88.50
2018-11-11T14:18:11.326Z,88.70
2018-11-11T14:20:40.432Z,88.30
2018-11-11T14:23:08.846Z,88.60
2018-11-11T14:25:37.287Z,88.00
2018-11-11T14:28:06.167Z,88.20
2018-11-11T14:30:34.573Z,87.90
2018-11-11T14:33:03.071Z,88.00
2018-11-11T14:35:31.492Z,87.30
2018-11-11T14:37:59.918Z,88.50
2018-11-11T14:40:29.355Z,88.70
2018-11-11T14:42:57.776Z,88.30
2018-11-11T14:45:26.614Z,87.70
2018-11-11T14:47:55.933Z,87.50
2018-11-11T14:50:24.872Z,87.90
2018-11-11T14:52:53.475Z,88.20
2018-11-11T15:00:03.302Z,88.90
2018-11-11T15:02:31.732Z,88.50
2018-11-11T15:05:00.156Z,88.80
2018-11-11T15:07:28.885Z,89.20
2018-11-11T15:09:57.370Z,89.60
2018-11-11T15:12:25.820Z,89.60
2018-11-11T15:14:54.258Z,89.50
2018-11-11T15:17:22.664Z,90.00
2018-11-11T15:19:51.502Z,90.00
2018-11-11T15:22:21.443Z,89.70
2018-11-11T15:24:49.873Z,90.10
2018-11-11T15:27:18.289Z,89.70
2018-11-11T15:29:46.739Z,90.20
2018-11-11T15:32:15.359Z,90.30
2018-11-11T15:34:43.745Z,90.20
2018-11-11T15:37:12.199Z,90.40
2018-11-11T15:39:40.947Z,90.40
2018-11-11T15:42:10.155Z,90.60
2018-11-11T15:44:38.601Z,90.70
2018-11-11T15:47:07.019Z,90.70
2018-11-11T15:49:35.423Z,90.80
2018-11-11T15:52:03.937Z,90.90
2018-11-11T15:54:32.505Z,90.60
2018-11-11T15:57:01.127Z,90.90
2018-11-11T15:59:29.571Z,90.80
2018-11-11T16:01:58.018Z,90.90
2018-11-11T16:04:26.413Z,91.00
2018-11-11T16:06:54.821Z,91.10
2018-11-11T16:09:23.269Z,91.10
2018-11-11T16:11:51.715Z,91.20
2018-11-11T16:14:20.136Z,91.10
2018-11-11T16:16:48.619Z,91.20
2018-11-11T16:19:17.013Z,91.10
2018-11-11T16:21:45.430Z,91.30
2018-11-11T16:24:13.882Z,91.20
2018-11-11T16:26:42.294Z,91.40
2018-11-11T16:29:10.726Z,91.40
2018-11-11T16:31:39.126Z,91.00
2018-11-11T16:34:07.996Z,91.40
2018-11-11T16:36:36.565Z,91.40
2018-11-11T16:39:07.931Z,91.30
2018-11-11T16:41:36.642Z,91.40
2018-11-11T16:44:05.144Z,91.50
2018-11-11T16:46:33.577Z,91.40
2018-11-11T16:49:01.979Z,91.50
2018-11-11T16:51:30.414Z,91.60
2018-11-11T16:53:59.233Z,91.60
2018-11-11T16:56:28.349Z,91.70
2018-11-11T16:58:56.753Z,91.60
2018-11-11T17:01:25.315Z,91.70
2018-11-11T17:03:53.731Z,91.60
2018-11-11T17:06:22.151Z,91.70
2018-11-11T17:08:50.563Z,91.70
2018-11-11T17:11:19.174Z,91.70
2018-11-11T17:13:47.598Z,91.80
2018-11-11T17:16:15.994Z,91.70
2018-11-11T17:18:44.352Z,91.70
2018-11-11T17:21:12.886Z,91.80
2018-11-11T17:23:41.481Z,91.80
2018-11-11T17:26:09.854Z,91.70
2018-11-11T17:28:39.241Z,92.00
2018-11-11T17:31:07.667Z,91.90
2018-11-11T17:33:36.053Z,92.00
2018-11-11T17:36:04.501Z,92.20
2018-11-11T17:38:33.032Z,92.30
2018-11-11T17:41:01.406Z,92.20
2018-11-11T17:43:29.884Z,92.40
2018-11-11T17:45:58.260Z,92.50
2018-11-11T17:48:26.653Z,92.70
2018-11-11T17:50:55.263Z,92.90
2018-11-11T17:53:23.664Z,93.10
2018-11-11T17:55:52.038Z,93.10
2018-11-11T17:58:20.420Z,93.10
2018-11-11T18:00:48.805Z,93.20
2018-11-11T18:03:17.267Z,93.40
2018-11-11T18:05:45.827Z,93.50
2018-11-11T18:08:14.802Z,93.50
2018-11-11T18:10:43.495Z,93.50
2018-11-11T18:13:12.137Z,93.50
2018-11-11T18:15:40.595Z,93.70
2018-11-11T18:18:08.970Z,94.10
2018-11-11T18:20:37.502Z,93.90
2018-11-11T18:23:06.891Z,94.00
2018-11-11T18:25:35.597Z,94.10
2018-11-11T18:28:04.616Z,94.20
2018-11-11T18:30:34.273Z,94.40
2018-11-11T18:33:02.739Z,94.30
2018-11-11T18:35:31.594Z,94.30
2018-11-11T18:38:00.683Z,94.60
2018-11-11T18:40:30.019Z,94.70
2018-11-11T18:42:58.617Z,94.20
2018-11-11T18:45:28.909Z,94.40
2018-11-11T18:49:26.934Z,94.50
2018-11-11T18:51:55.571Z,94.60
2018-11-11T18:54:25.804Z,94.50
2018-11-11T18:56:54.220Z,94.50
2018-11-11T18:59:22.863Z,95.80
2018-11-11T19:01:51.321Z,95.70
2018-11-11T19:04:19.987Z,95.80
2018-11-11T19:06:48.399Z,95.80
2018-11-11T19:09:16.861Z,95.90
2018-11-11T19:11:45.496Z,95.90
2018-11-11T19:14:13.966Z,96.10
2018-11-11T19:16:42.344Z,96.20
2018-11-11T19:19:10.745Z,96.20
2018-11-11T19:21:39.175Z,96.50
2018-11-11T19:24:07.800Z,96.80
2018-11-11T19:26:36.354Z,96.70
2018-11-11T19:29:04.918Z,97.00
2018-11-11T19:31:33.332Z,96.00
2018-11-11T19:34:01.708Z,95.90
2018-11-11T19:36:30.169Z,96.00
2018-11-11T19:38:58.614Z,96.00
2018-11-11T19:46:03.277Z,96.20
2018-11-11T19:48:31.719Z,97.00
2018-11-11T19:51:00.182Z,96.10
2018-11-11T19:53:28.706Z,96.40
2018-11-11T19:55:57.445Z,96.40
2018-11-11T19:58:25.892Z,96.40
2018-11-11T20:00:54.774Z,96.30
2018-11-11T20:03:23.229Z,96.20
2018-11-11T20:05:51.676Z,96.00
2018-11-11T20:08:20.200Z,96.10
2018-11-11T20:10:48.711Z,96.60
2018-11-11T20:13:17.287Z,97.70
2018-11-11T20:15:45.695Z,97.60
2018-11-11T20:18:14.155Z,97.90
2018-11-11T20:20:42.573Z,97.90
2018-11-11T20:23:10.961Z,98.20
2018-11-11T20:25:39.357Z,98.50
2018-11-11T20:28:07.796Z,98.40
2018-11-11T20:30:37.638Z,98.50
2018-11-11T20:33:06.377Z,98.70
2018-11-11T20:35:34.905Z,98.40
2018-11-11T20:38:03.351Z,98.80
2018-11-11T20:40:32.385Z,97.00
2018-11-11T20:43:00.823Z,96.70
2018-11-11T20:45:30.812Z,96.90
2018-11-11T20:47:59.312Z,96.90
2018-11-11T20:50:29.130Z,97.10
2018-11-11T20:52:59.016Z,97.00
2018-11-11T20:55:27.413Z,97.10
2018-11-11T20:57:55.943Z,97.40
2018-11-11T21:00:25.665Z,97.20
2018-11-11T21:02:54.087Z,97.40
2018-11-11T21:05:23.834Z,97.30
2018-11-11T21:07:52.407Z,97.60
2018-11-11T21:10:22.335Z,97.70
2018-11-11T21:12:50.814Z,97.60
2018-11-11T21:15:22.311Z,97.40
2018-11-11T21:17:52.759Z,97.70
2018-11-11T21:20:24.611Z,97.40
2018-11-11T21:22:53.037Z,97.60
2018-11-11T21:25:21.513Z,99.40
2018-11-11T21:27:51.061Z,99.60
2018-11-11T21:30:20.851Z,99.50
2018-11-11T21:32:50.599Z,99.80
2018-11-11T21:35:18.998Z,99.90
2018-11-11T21:37:47.465Z,99.90
2018-11-11T21:40:17.375Z,99.90
2018-11-11T21:42:47.169Z,99.90
2018-11-11T21:45:16.858Z,99.90
2018-11-11T21:47:45.505Z,99.90
2018-11-11T21:50:16.179Z,99.90
2018-11-11T21:52:51.243Z,99.90
2018-11-11T21:55:19.848Z,99.90
2018-11-11T21:57:48.416Z,99.90
2018-11-11T22:00:16.843Z,99.90
2018-11-11T22:02:45.334Z,99.90
2018-11-11T22:05:13.956Z,99.90
2018-11-11T22:09:12.299Z,99.90
2018-11-11T22:11:40.948Z,99.90
2018-11-11T22:14:09.513Z,99.90
2018-11-11T22:16:37.920Z,99.90
2018-11-11T22:19:06.912Z,99.90
2018-11-11T22:21:35.307Z,99.90
2018-11-11T22:24:03.723Z,99.90
2018-11-11T22:26:32.103Z,99.90
2018-11-11T22:29:00.451Z,99.90
2018-11-11T22:31:28.920Z,99.90
2018-11-11T22:33:57.325Z,99.90
2018-11-11T22:36:25.739Z,99.90
2018-11-11T22:38:54.301Z,99.90
2018-11-11T22:41:32.876Z,98.70
2018-11-11T22:44:01.745Z,98.80
2018-11-11T22:46:30.208Z,98.70
2018-11-11T22:48:58.600Z,98.90
2018-11-11T22:51:26.999Z,99.00
2018-11-11T22:53:55.371Z,99.00
2018-11-11T22:56:24.127Z,99.10
2018-11-11T22:58:52.547Z,99.70
2018-11-11T23:01:22.185Z,99.70
2018-11-11T23:03:51.171Z,99.30
2018-11-11T23:06:19.552Z,99.70
2018-11-11T23:08:48.282Z,99.30
2018-11-11T23:11:17.009Z,99.20
2018-11-11T23:13:45.438Z,99.10
2018-11-11T23:16:13.852Z,99.60
2018-11-11T23:18:43.400Z,99.70
2018-11-11T23:21:13.574Z,99.90
2018-11-11T23:23:41.966Z,99.80
2018-11-11T23:26:10.375Z,99.90
2018-11-11T23:28:38.806Z,99.40
2018-11-11T23:31:07.337Z,99.50
2018-11-11T23:33:35.729Z,99.90
2018-11-11T23:36:04.175Z,99.90
2018-11-11T23:38:32.575Z,99.90
2018-11-11T23:41:00.952Z,99.90
2018-11-11T23:43:29.364Z,99.70
2018-11-11T23:45:57.744Z,99.80
2018-11-11T23:48:26.237Z,99.80
2018-11-11T23:50:54.651Z,99.60
2018-11-11T23:53:23.159Z,99.30
2018-11-11T23:55:51.563Z,99.70
2018-11-11T23:58:19.949Z,99.70
